createdAt,value
2018-04-10T00:01:33.274Z,99435.70
2018-04-10T00:04:00.824Z,99435.56
2018-04-10T00:06:28.417Z,99435.00
2018-04-10T00:08:55.981Z,99433.87
2018-04-10T00:11:23.539Z,99432.27
2018-04-10T00:13:51.093Z,99429.51
2018-04-10T00:16:18.704Z,99436.28
2018-04-10T00:18:46.237Z,99437.75
2018-04-10T00:21:14.744Z,99439.35
2018-04-10T00:23:42.314Z,99441.41
2018-04-10T00:26:09.888Z,99442.80
2018-04-10T00:28:37.464Z,99447.56
2018-04-10T00:31:04.998Z,99447.27
2018-04-10T00:33:32.548Z,99446.30
2018-04-10T00:36:00.117Z,99446.34
2018-04-10T00:38:27.691Z,99438.13
2018-04-10T00:40:55.261Z,99428.47
2018-04-10T00:43:22.801Z,99427.84
2018-04-10T00:45:50.356Z,99430.21
2018-04-10T00:48:17.896Z,99425.73
2018-04-10T00:50:45.468Z,99425.85
2018-04-10T00:53:36.780Z,99423.70
2018-04-10T00:56:04.347Z,99422.41
2018-04-10T00:58:31.890Z,99431.39
2018-04-10T01:00:59.486Z,99429.95
2018-04-10T01:03:27.099Z,99420.20
2018-04-10T01:05:54.683Z,99424.82
2018-04-10T01:08:22.256Z,99430.27
2018-04-10T01:10:49.813Z,99422.34
2018-04-10T01:13:17.372Z,99426.77
2018-04-10T01:15:44.947Z,99427.28
2018-04-10T01:18:12.533Z,99428.56
2018-04-10T01:20:40.093Z,99426.41
2018-04-10T01:23:07.648Z,99430.46
2018-04-10T01:25:35.211Z,99418.66
2018-04-10T01:28:02.768Z,99421.59
2018-04-10T01:30:30.323Z,99423.13
2018-04-10T01:32:57.889Z,99419.69
2018-04-10T01:35:25.433Z,99424.56
2018-04-10T01:37:52.995Z,99428.61
2018-04-10T01:40:20.578Z,99430.57
2018-04-10T01:42:48.142Z,99427.29
2018-04-10T01:45:15.726Z,99417.69
2018-04-10T01:47:43.517Z,99420.81
2018-04-10T01:50:11.161Z,99417.43
2018-04-10T01:52:38.714Z,99419.98
2018-04-10T01:55:06.277Z,99422.72
2018-04-10T01:57:33.818Z,99421.13
2018-04-10T02:00:01.380Z,99421.18
2018-04-10T02:02:28.943Z,99421.27
2018-04-10T02:04:56.500Z,99426.20
2018-04-10T02:07:24.076Z,99424.62
2018-04-10T02:21:33.859Z,99417.06
2018-04-10T02:24:18.959Z,99416.69
2018-04-10T02:26:46.501Z,99422.34
2018-04-10T02:29:14.047Z,99418.59
2018-04-10T02:31:41.600Z,99424.23
2018-04-10T02:34:09.195Z,99427.21
2018-04-10T02:36:36.733Z,99428.49
2018-04-10T02:39:04.314Z,99430.75
2018-04-10T02:41:31.878Z,99425.88
2018-04-10T02:44:00.022Z,99425.11
2018-04-10T02:46:27.769Z,99426.73
2018-04-10T02:48:55.326Z,99427.09
2018-04-10T02:51:22.888Z,99428.80
2018-04-10T02:53:50.464Z,99434.51
2018-04-10T02:56:18.027Z,99432.92
2018-04-10T02:58:45.581Z,99432.91
2018-04-10T03:01:13.120Z,99430.83
2018-04-10T03:03:40.649Z,99427.25
2018-04-10T03:06:08.201Z,99430.33
2018-04-10T03:08:35.752Z,99433.98
2018-04-10T03:11:03.309Z,99438.66
2018-04-10T03:13:30.862Z,99434.24
2018-04-10T03:15:58.453Z,99438.28
2018-04-10T03:18:26.043Z,99442.41
2018-04-10T03:20:54.212Z,99443.02
2018-04-10T03:23:21.742Z,99446.94
2018-04-10T03:25:49.333Z,99441.28
2018-04-10T03:28:16.889Z,99436.16
2018-04-10T03:30:44.469Z,99434.33
2018-04-10T03:33:12.090Z,99431.53
2018-04-10T03:35:39.677Z,99430.09
2018-04-10T03:38:07.230Z,99426.67
2018-04-10T03:40:34.798Z,99425.17
2018-04-10T03:43:02.358Z,99427.52
2018-04-10T03:45:29.950Z,99432.23
2018-04-10T03:47:57.566Z,99427.52
2018-04-10T03:50:25.125Z,99433.25
2018-04-10T03:52:52.668Z,99433.33
2018-04-10T03:55:20.233Z,99429.91
2018-04-10T03:57:47.798Z,99425.75
2018-04-10T04:00:15.363Z,99420.11
2018-04-10T04:02:42.910Z,99423.58
2018-04-10T04:05:10.486Z,99423.19
2018-04-10T04:07:38.041Z,99421.43
2018-04-10T04:10:05.607Z,99425.84
2018-04-10T04:12:33.185Z,99421.31
2018-04-10T04:15:00.736Z,99427.77
2018-04-10T04:17:34.150Z,99433.58
2018-04-10T04:20:13.407Z,99431.84
2018-04-10T04:22:40.964Z,99429.70
2018-04-10T04:25:08.563Z,99428.87
2018-04-10T04:27:36.113Z,99427.04
2018-04-10T04:30:03.687Z,99421.31
2018-04-10T04:32:31.257Z,99423.69
2018-04-10T04:34:58.806Z,99424.65
2018-04-10T04:37:26.417Z,99420.16
2018-04-10T04:39:54.005Z,99414.72
2018-04-10T04:42:21.584Z,99409.09
2018-04-10T04:44:49.121Z,99418.77
2018-04-10T04:47:16.735Z,99423.25
2018-04-10T04:49:44.313Z,99422.98
2018-04-10T04:52:11.893Z,99423.67
2018-04-10T04:54:39.425Z,99426.63
2018-04-10T04:57:07.051Z,99428.97
2018-04-10T04:59:34.631Z,99427.17
2018-04-10T05:02:02.173Z,99432.72
2018-04-10T05:04:29.733Z,99435.77
2018-04-10T05:06:57.286Z,99432.49
2018-04-10T05:09:24.853Z,99433.59
2018-04-10T05:11:52.422Z,99436.47
2018-04-10T05:14:19.957Z,99444.58
2018-04-10T05:16:47.514Z,99434.22
2018-04-10T05:19:15.112Z,99437.25
2018-04-10T05:21:42.696Z,99437.44
2018-04-10T05:24:10.248Z,99435.63
2018-04-10T05:26:37.812Z,99428.33
2018-04-10T05:29:05.376Z,99422.59
2018-04-10T05:31:32.931Z,99428.00
2018-04-10T05:34:00.516Z,99431.61
2018-04-10T05:36:28.049Z,99429.80
2018-04-10T05:38:55.607Z,99435.44
2018-04-10T05:41:23.152Z,99440.42
2018-04-10T05:43:50.717Z,99440.12
2018-04-10T05:46:18.293Z,99441.83
2018-04-10T05:48:45.853Z,99443.77
2018-04-10T05:51:13.412Z,99447.22
2018-04-10T05:53:40.973Z,99445.04
2018-04-10T05:56:08.541Z,99449.02
2018-04-10T05:58:36.076Z,99453.65
2018-04-10T06:01:03.649Z,99460.36
2018-04-10T06:03:31.219Z,99460.24
2018-04-10T06:05:58.772Z,99459.31
2018-04-10T06:08:26.324Z,99466.47
2018-04-10T06:10:53.873Z,99452.95
2018-04-10T06:13:21.413Z,99458.16
2018-04-10T06:15:49.033Z,99462.45
2018-04-10T06:18:16.580Z,99458.25
2018-04-10T06:20:44.146Z,99460.53
2018-04-10T06:23:11.707Z,99456.20
2018-04-10T06:25:39.296Z,99459.11
2018-04-10T06:28:06.875Z,99461.07
2018-04-10T06:30:34.422Z,99466.63
2018-04-10T06:33:01.981Z,99458.91
2018-04-10T06:35:29.553Z,99466.39
2018-04-10T06:37:57.101Z,99470.22
2018-04-10T06:40:24.707Z,99472.21
2018-04-10T06:42:52.308Z,99478.06
2018-04-10T06:45:19.859Z,99470.28
2018-04-10T06:47:47.406Z,99475.36
2018-04-10T06:50:14.965Z,99469.52
2018-04-10T06:52:42.539Z,99463.41
2018-04-10T06:55:10.124Z,99455.73
2018-04-10T06:57:37.678Z,99450.57
2018-04-10T07:00:05.284Z,99445.78
2018-04-10T07:02:32.830Z,99448.30
2018-04-10T07:05:00.392Z,99443.03
2018-04-10T07:07:27.957Z,99453.76
2018-04-10T07:09:55.511Z,99453.97
2018-04-10T07:12:23.038Z,99461.03
2018-04-10T07:14:50.594Z,99461.91
2018-04-10T07:17:18.137Z,99452.66
2018-04-10T07:19:45.711Z,99460.08
2018-04-10T07:22:13.304Z,99459.06
2018-04-10T07:24:40.853Z,99458.51
2018-04-10T07:27:08.393Z,99464.58
2018-04-10T07:29:35.941Z,99461.41
2018-04-10T07:32:03.865Z,99459.11
2018-04-10T07:34:31.413Z,99462.18
2018-04-10T07:36:58.965Z,99464.91
2018-04-10T07:39:26.545Z,99464.90
2018-04-10T07:41:54.123Z,99465.61
2018-04-10T07:44:21.677Z,99472.95
2018-04-10T07:46:49.234Z,99472.03
2018-04-10T07:49:16.801Z,99476.52
2018-04-10T07:51:44.366Z,99471.84
2018-04-10T07:54:11.955Z,99466.43
2018-04-10T07:56:39.507Z,99467.37
2018-04-10T07:59:07.083Z,99473.94
2018-04-10T08:01:34.622Z,99471.58
2018-04-10T08:04:02.191Z,99468.97
2018-04-10T08:06:29.759Z,99472.61
2018-04-10T08:08:57.307Z,99474.41
2018-04-10T08:11:24.848Z,99464.11
2018-04-10T08:13:52.418Z,99462.88
2018-04-10T08:16:19.989Z,99466.66
2018-04-10T08:18:47.519Z,99478.91
2018-04-10T19:14:13.964Z,99588.27
2018-04-10T19:16:42.367Z,99598.03
2018-04-10T19:19:09.963Z,99581.15
2018-04-10T19:21:37.520Z,99585.64
2018-04-10T19:24:05.113Z,99598.66
2018-04-10T19:26:32.727Z,99596.00
2018-04-10T19:29:00.305Z,99589.20
2018-04-10T19:31:27.896Z,99598.67
2018-04-10T19:33:55.423Z,99609.04
2018-04-10T19:36:22.992Z,99604.22
2018-04-10T19:38:50.548Z,99612.63
2018-04-10T19:41:18.102Z,99618.38
2018-04-10T19:43:45.662Z,99622.30
2018-04-10T19:46:13.226Z,99605.44
2018-04-10T19:48:40.802Z,99622.91
2018-04-10T19:51:08.375Z,99625.11
2018-04-10T19:53:35.938Z,99627.94
2018-04-10T19:56:03.504Z,99622.07
2018-04-10T19:58:31.059Z,99637.61
2018-04-10T20:00:58.585Z,99631.33
2018-04-10T20:03:26.145Z,99638.08
2018-04-10T20:05:53.734Z,99627.70
2018-04-10T20:08:21.280Z,99638.22
2018-04-10T20:10:48.925Z,99632.64
2018-04-10T20:13:16.532Z,99632.30
2018-04-10T20:15:44.121Z,99640.23
2018-04-10T20:18:11.777Z,99647.06
2018-04-10T20:20:39.842Z,99652.00
2018-04-10T20:23:07.406Z,99645.09
2018-04-10T20:25:34.990Z,99650.83
2018-04-10T20:28:02.582Z,99645.58
2018-04-10T20:30:30.155Z,99647.39
2018-04-10T20:32:57.705Z,99649.80
2018-04-10T20:35:25.279Z,99641.19
2018-04-10T20:37:53.036Z,99650.17
2018-04-10T20:40:21.196Z,99653.45
2018-04-10T20:42:48.765Z,99664.55
2018-04-10T20:45:16.317Z,99660.78
2018-04-10T20:47:43.892Z,99666.66
2018-04-10T20:50:11.455Z,99662.23
2018-04-10T20:52:39.002Z,99680.77
2018-04-10T20:55:06.655Z,99674.31
2018-04-10T20:57:34.354Z,99676.69
2018-04-10T21:00:02.120Z,99688.78
2018-04-10T21:02:29.844Z,99688.88
2018-04-10T21:04:57.635Z,99692.39
2018-04-10T21:07:25.299Z,99693.55
2018-04-10T21:09:52.901Z,99700.55
2018-04-10T21:12:20.445Z,99711.47
2018-04-10T21:14:48.126Z,99710.36
2018-04-10T21:17:15.763Z,99720.45
2018-04-10T21:19:43.359Z,99720.95
2018-04-10T21:22:10.917Z,99724.75
2018-04-10T21:24:38.515Z,99730.91
2018-04-10T21:27:06.261Z,99736.91
2018-04-10T21:29:33.823Z,99743.24
2018-04-10T21:32:01.495Z,99738.02
2018-04-10T21:34:29.086Z,99738.00
2018-04-10T21:36:56.679Z,99745.73
2018-04-10T21:39:24.376Z,99743.86
2018-04-10T21:41:51.939Z,99756.89
2018-04-10T21:44:19.633Z,99750.56
2018-04-10T21:46:47.255Z,99744.08
2018-04-10T21:49:14.853Z,99747.68
2018-04-10T21:51:42.573Z,99745.75
2018-04-10T21:54:10.148Z,99742.55
2018-04-10T21:56:37.712Z,99749.22
2018-04-10T21:59:05.469Z,99752.78
2018-04-10T22:01:34.633Z,99759.64
2018-04-10T22:04:02.792Z,99762.23
2018-04-10T22:06:30.354Z,99766.42
2018-04-10T22:08:57.916Z,99761.02
2018-04-10T22:11:25.625Z,99769.98
2018-04-10T22:13:53.181Z,99777.44
2018-04-10T22:16:20.738Z,99782.11
2018-04-10T22:18:48.312Z,99773.35
2018-04-10T22:21:15.857Z,99764.73
2018-04-10T22:23:43.421Z,99777.52
2018-04-10T22:26:10.991Z,99771.22
2018-04-10T22:28:38.591Z,99780.30
2018-04-10T22:31:06.149Z,99785.98
2018-04-10T22:33:33.701Z,99786.62
2018-04-10T22:36:01.313Z,99776.99
2018-04-10T22:38:28.895Z,99782.94
2018-04-10T22:40:56.500Z,99784.81
2018-04-10T22:43:24.089Z,99779.99
2018-04-10T22:45:51.675Z,99778.96
2018-04-10T22:48:19.252Z,99780.36
2018-04-10T22:50:46.815Z,99786.39
2018-04-10T22:53:14.386Z,99791.09
2018-04-10T22:55:41.959Z,99780.21
2018-04-10T22:58:09.520Z,99790.96
2018-04-10T23:00:54.728Z,99804.66
2018-04-10T23:03:22.296Z,99828.05
2018-04-10T23:05:49.877Z,99818.83
2018-04-10T23:08:17.474Z,99850.13
2018-04-10T23:10:45.013Z,99857.23
2018-04-10T23:13:12.785Z,99845.17
2018-04-10T23:15:40.350Z,99851.90
2018-04-10T23:18:07.925Z,99845.70
2018-04-10T23:20:35.493Z,99859.83
2018-04-10T23:23:03.066Z,99858.98
2018-04-10T23:25:30.630Z,99853.48
2018-04-10T23:27:58.188Z,99847.13
2018-04-10T23:30:25.728Z,99849.41
2018-04-10T23:32:53.286Z,99853.59
2018-04-10T23:35:20.886Z,99853.75
2018-04-10T23:37:48.456Z,99858.00
2018-04-10T23:40:15.992Z,99849.14
2018-04-10T23:42:43.577Z,99846.58
2018-04-10T23:45:11.135Z,99840.82
2018-04-10T23:47:38.724Z,99849.88
2018-04-10T23:50:06.271Z,99850.32
2018-04-10T23:52:33.815Z,99851.55
2018-04-10T23:55:01.369Z,99849.11
2018-04-10T23:57:28.929Z,99833.84
2018-04-10T23:59:56.460Z,99837.80
